Time;durP1;ratioP1;P1;durP2;ratioP2;P2;SDS_P1;SDS_P2;PMS_P1;PMS_P2;Temp;Humidity;BMP_temperature;BMP_pressure;BME280_temperature;BME280_humidity;BME280_pressure;Samples;Min_cycle;Max_cycle;Signal;HPM_P1;HPM_P2
2021/12/10 00:02:13;;;;;;;22.43;16.17;;;;;;;1.65;99.75;99646.56;5228173;28;20029;-70
2021/12/10 00:04:45;;;;;;;;;;;;;;;1.73;99.66;99638.91;5228595;28;20024;-69
2021/12/10 00:07:20;;;;;;;26.40;15.20;;;;;;;1.77;98.82;99632.91;5243178;28;20371;-68
2021/12/10 00:09:58;;;;;;;21.92;15.00;;;;;;;1.82;98.57;99631.25;5228378;28;20036;-70
2021/12/10 00:12:49;;;;;;;27.05;15.50;;;;;;;1.87;98.00;99618.41;5228489;28;20349;-70
2021/12/10 00:15:23;;;;;;;21.50;14.10;;;;;;;1.91;98.00;99613.28;5228177;28;20029;-69
2021/12/10 00:17:57;;;;;;;25.50;14.48;;;;;;;1.92;97.14;99602.16;5227443;28;20061;-68
2021/12/10 00:20:31;;;;;;;25.08;13.13;;;;;;;1.97;96.90;99597.03;5228261;28;20079;-69
2021/12/10 00:23:08;;;;;;;21.52;12.88;;;;;;;1.99;96.54;99603.88;5236443;28;20109;-69
2021/12/10 00:25:48;;;;;;;20.92;13.25;;;;;;;2.02;96.27;99590.19;5228799;28;20056;-69
2021/12/10 00:28:21;;;;;;;23.80;13.57;;;;;;;2.06;95.90;99591.03;5219838;28;20042;-69
2021/12/10 00:31:13;;;;;;;20.33;12.10;;;;;;;2.06;95.68;99579.06;5207620;28;20279;-69
2021/12/10 00:33:54;;;;;;;20.73;11.73;;;;;;;2.06;95.21;99561.06;5208939;28;20469;-70
2021/12/10 00:36:27;;;;;;;18.38;10.80;;;;;;;2.04;95.25;99562.75;5208824;28;20066;-70
2021/12/10 00:39:01;;;;;;;21.98;10.57;;;;;;;2.05;95.06;99555.94;5208325;28;20033;-70
2021/12/10 00:41:33;;;;;;;18.23;9.75;;;;;;;2.01;94.92;99547.34;5208721;28;20033;-70
2021/12/10 00:44:05;;;;;;;21.95;10.52;;;;;;;1.92;94.83;99542.19;5196962;28;20352;-70
2021/12/10 00:46:36;;;;;;;18.87;8.90;;;;;;;1.85;95.24;99530.16;5208202;28;20030;-69
2021/12/10 00:49:08;;;;;;;20.60;8.83;;;;;;;1.79;95.34;99523.31;5220816;28;20029;-69
2021/12/10 00:51:40;;;;;;;23.20;10.07;;;;;;;1.76;95.16;99525.88;5212823;28;20022;-70
2021/12/10 00:54:12;;;;;;;16.02;8.48;;;;;;;1.73;95.35;99513.88;5221289;28;20071;-70
2021/12/10 00:56:44;;;;;;;15.50;7.88;;;;;;;1.70;95.41;99511.28;5228894;28;20022;-69
2021/12/10 00:59:19;;;;;;;17.90;7.57;;;;;;;1.68;95.64;99507.03;5249263;28;20049;-69
2021/12/10 01:01:52;;;;;;;17.05;9.35;;;;;;;1.67;95.65;99500.16;5241204;28;20021;-70
2021/12/10 01:04:32;;;;;;;18.23;7.90;;;;;;;1.65;95.30;99492.44;5233770;28;20067;-69
2021/12/10 01:07:08;;;;;;;15.68;7.70;;;;;;;1.67;95.40;99482.16;5240950;28;20040;-69
2021/12/10 01:09:50;;;;;;;16.75;7.82;;;;;;;1.66;95.53;99470.16;5242982;28;20092;-70
2021/12/10 01:12:32;;;;;;;20.13;7.82;;;;;;;1.66;95.36;99465.03;5236792;28;20025;-69
2021/12/10 01:23:52;;;;;;;18.50;7.93;;;;;;;1.59;95.72;99426.50;5233066;28;20458;-70
2021/12/10 01:26:52;;;;;;;18.05;7.85;;;;;;;1.58;95.78;99429.94;5232322;28;20520;-69
2021/12/10 01:29:41;;;;;;;19.52;8.23;;;;;;;1.54;95.86;99423.06;5231799;28;20096;-70
2021/12/10 01:32:16;;;;;;;20.65;7.07;;;;;;;1.53;95.65;99410.22;5230250;28;20036;-70
2021/12/10 01:34:48;;;;;;;14.98;7.70;;;;;;;1.54;95.63;99402.50;5231529;28;20021;-69
2021/12/10 01:37:20;;;;;;;14.95;6.88;;;;;;;1.54;95.67;99401.66;5230053;28;20038;-71
2021/12/10 01:39:55;;;;;;;15.27;6.82;;;;;;;1.48;95.71;99384.53;5231665;28;20034;-69
2021/12/10 01:45:03;;;;;;;12.60;7.10;;;;;;;1.51;96.02;99381.97;5231055;28;20053;-69
2021/12/10 01:47:37;;;;;;;14.27;7.05;;;;;;;1.48;95.63;99375.97;5231540;28;20026;-68
2021/12/10 01:50:08;;;;;;;16.88;6.90;;;;;;;1.44;95.85;99381.09;5231372;28;20413;-70
2021/12/10 01:52:40;;;;;;;20.97;6.57;;;;;;;1.42;96.04;99374.28;5230845;28;20033;-68
2021/12/10 01:55:14;;;;;;;19.97;6.07;;;;;;;1.43;96.23;99373.41;5230749;28;20791;-69
2021/12/10 01:57:46;;;;;;;12.82;6.07;;;;;;;1.43;96.09;99364.00;5230878;28;20030;-70
2021/12/10 02:00:22;;;;;;;14.48;6.35;;;;;;;1.38;95.94;99365.69;5230750;28;20037;-69
2021/12/10 02:02:55;;;;;;;24.60;7.25;;;;;;;1.40;96.12;99352.84;5230794;28;20041;-69
2021/12/10 02:05:27;;;;;;;19.52;7.13;;;;;;;1.37;95.95;99353.72;5230804;28;20048;-68
2021/12/10 02:07:59;;;;;;;23.35;6.63;;;;;;;1.36;96.12;99351.16;5230353;28;20032;-70
2021/12/10 02:10:30;;;;;;;18.83;7.87;;;;;;;1.37;96.03;99351.16;5230921;28;20344;-70
2021/12/10 02:13:03;;;;;;;18.93;6.97;;;;;;;1.36;96.06;99339.16;5230628;28;20056;-69
2021/12/10 02:15:35;;;;;;;;;;;;;;;1.34;96.12;99337.47;5230812;28;20025;-70
2021/12/10 02:18:08;;;;;;;13.32;5.93;;;;;;;1.31;96.14;99338.28;5230425;28;19928;-69
2021/12/10 02:21:01;;;;;;;13.38;5.88;;;;;;;1.32;95.79;99326.31;5229013;28;20035;-69
2021/12/10 02:23:37;;;;;;;13.95;6.00;;;;;;;1.32;96.27;99324.63;5230790;28;20029;-70
2021/12/10 02:26:12;;;;;;;13.63;4.97;;;;;;;1.39;95.55;99312.63;5230535;28;20022;-70
2021/12/10 02:28:44;;;;;;;13.15;5.60;;;;;;;1.43;95.63;99306.63;5230131;28;20107;-70
2021/12/10 02:31:16;;;;;;;17.17;5.30;;;;;;;1.40;95.48;99294.66;5230298;28;20552;-70
2021/12/10 02:33:48;;;;;;;22.38;5.68;;;;;;;1.42;95.20;99287.81;5230035;28;20040;-69
2021/12/10 02:36:19;;;;;;;13.70;5.07;;;;;;;1.45;95.12;99284.41;5230002;28;20571;-69
2021/12/10 02:38:53;;;;;;;11.90;4.70;;;;;;;1.51;95.05;99283.53;5230610;28;20041;-69
2021/12/10 02:41:29;;;;;;;11.70;3.97;;;;;;;1.55;94.25;99283.53;5229771;28;20483;-69
2021/12/10 02:44:02;;;;;;;10.75;4.05;;;;;;;1.52;94.37;99272.41;5229634;28;20075;-69
2021/12/10 02:46:38;;;;;;;14.00;4.57;;;;;;;1.54;94.07;99268.97;5229560;28;20513;-70
2021/12/10 02:49:12;;;;;;;14.07;4.32;;;;;;;1.52;93.88;99259.56;5228455;28;20044;-69
2021/12/10 02:51:44;;;;;;;14.75;4.55;;;;;;;1.57;94.08;99252.72;5229743;28;20132;-69
2021/12/10 02:54:21;;;;;;;12.18;4.10;;;;;;;1.55;93.67;99251.88;5229622;28;20461;-70
2021/12/10 02:56:53;;;;;;;9.50;3.25;;;;;;;1.59;93.80;99249.25;5229647;28;20444;-69
2021/12/10 02:59:24;;;;;;;10.65;4.07;;;;;;;1.60;93.78;99252.72;5229463;28;20480;-71
2021/12/10 03:01:57;;;;;;;8.87;3.87;;;;;;;1.61;93.36;99247.56;5227719;28;20051;-70
2021/12/10 03:04:31;;;;;;;9.32;4.50;;;;;;;1.63;93.02;99242.44;5229315;28;20029;-70
2021/12/10 03:07:08;;;;;;;10.73;3.97;;;;;;;1.63;93.14;99242.44;5229241;28;20405;-70
2021/12/10 03:09:45;;;;;;;12.43;4.15;;;;;;;1.70;92.54;99228.72;5229475;28;20931;-69
2021/12/10 03:12:18;;;;;;;10.75;4.18;;;;;;;1.69;92.52;99221.00;5229614;28;20339;-69
2021/12/10 03:14:53;;;;;;;15.15;4.30;;;;;;;1.68;92.70;99212.44;5229413;28;20961;-70
2021/12/10 03:17:28;;;;;;;8.85;3.47;;;;;;;1.72;92.40;99214.13;5229399;28;20477;-69
2021/12/10 03:20:04;;;;;;;9.93;3.60;;;;;;;1.72;92.21;99213.28;5229425;28;20029;-69
2021/12/10 03:22:37;;;;;;;12.00;3.78;;;;;;;1.74;92.18;99206.44;5229122;28;20538;-70
2021/12/10 03:25:12;;;;;;;11.60;3.53;;;;;;;1.71;92.08;99199.59;5228816;28;20022;-70
2021/12/10 03:27:45;;;;;;;21.25;5.03;;;;;;;1.69;92.07;99201.34;5228570;28;20079;-69
2021/12/10 03:30:19;;;;;;;;;;;;;;;1.71;92.39;99202.19;5230009;28;20345;-71
2021/12/10 03:32:52;;;;;;;9.40;3.30;;;;;;;1.72;92.24;99191.03;5227650;28;20036;-69
2021/12/10 03:35:35;;;;;;;;;;;;;;;1.74;92.32;99184.19;5229413;28;20132;-70
2021/12/10 03:38:07;;;;;;;9.43;3.10;;;;;;;1.77;91.72;99180.75;5229324;28;19917;-71
2021/12/10 03:40:40;;;;;;;9.20;3.20;;;;;;;1.82;91.50;99179.03;5229479;28;20069;-71
2021/12/10 03:43:13;;;;;;;11.48;3.92;;;;;;;1.89;91.25;99174.72;5228873;28;20033;-70
2021/12/10 03:45:48;;;;;;;12.88;3.85;;;;;;;1.89;91.34;99172.16;5229156;28;20048;-69
2021/12/10 03:48:26;;;;;;;9.45;3.60;;;;;;;1.93;91.18;99153.28;5228598;28;20103;-70
2021/12/10 03:51:00;;;;;;;7.57;3.50;;;;;;;1.94;90.69;99168.69;5228230;28;20116;-69
2021/12/10 03:53:31;;;;;;;8.60;3.60;;;;;;;1.94;90.64;99170.41;5228586;28;20669;-69
2021/12/10 03:56:07;;;;;;;10.53;4.67;;;;;;;1.95;90.74;99146.44;5229106;28;20017;-69
2021/12/10 03:58:39;;;;;;;11.18;3.80;;;;;;;1.96;91.24;99153.28;5228753;28;20372;-69
2021/12/10 04:01:13;;;;;;;9.35;3.80;;;;;;;1.96;90.83;99153.28;5228963;28;20113;-68
2021/12/10 04:03:47;;;;;;;11.35;3.80;;;;;;;1.95;90.93;99149.00;5228314;28;20021;-69
2021/12/10 04:06:19;;;;;;;11.05;3.60;;;;;;;1.96;91.05;99135.28;5228242;28;20714;-69
2021/12/10 04:08:51;;;;;;;10.50;3.42;;;;;;;1.95;91.02;99131.03;5228355;28;20061;-69
2021/12/10 04:11:23;;;;;;;12.60;3.97;;;;;;;1.98;90.96;99120.69;5228469;28;20026;-69
2021/12/10 04:13:55;;;;;;;10.57;3.78;;;;;;;1.95;91.00;99125.88;5228439;28;20077;-68
2021/12/10 04:16:29;;;;;;;11.67;4.07;;;;;;;1.95;91.04;99118.16;5228559;28;20033;-69
2021/12/10 04:19:03;;;;;;;12.98;3.70;;;;;;;1.98;91.00;99113.88;5228213;28;20971;-69
2021/12/10 04:21:40;;;;;;;8.80;4.05;;;;;;;1.99;90.63;99101.84;5228578;28;20364;-69
2021/12/10 04:24:15;;;;;;;9.55;3.63;;;;;;;1.94;91.09;99095.91;5228082;28;20018;-68
2021/12/10 04:26:48;;;;;;;15.35;4.18;;;;;;;1.98;90.87;99095.88;5227977;28;20109;-70
2021/12/10 04:29:20;;;;;;;10.93;3.40;;;;;;;1.98;90.76;99077.88;5228358;28;20037;-69
2021/12/10 04:31:54;;;;;;;10.50;3.47;;;;;;;1.98;90.59;99079.59;5228143;28;20048;-69
2021/12/10 04:34:27;;;;;;;10.35;3.60;;;;;;;1.97;90.75;99077.91;5227728;28;20022;-68
2021/12/10 04:37:01;;;;;;;9.23;4.18;;;;;;;1.96;91.11;99071.88;5218767;28;20067;-69
2021/12/10 04:39:37;;;;;;;8.65;3.60;;;;;;;1.97;91.15;99059.91;5232313;28;20030;-69
2021/12/10 04:42:08;;;;;;;15.70;4.07;;;;;;;1.94;91.27;99055.63;5231888;28;20033;-69
2021/12/10 04:44:40;;;;;;;10.33;3.70;;;;;;;2.00;91.00;99049.59;5247429;28;20025;-69
2021/12/10 04:47:11;;;;;;;12.70;3.47;;;;;;;1.99;91.71;99043.59;5232087;28;20060;-69
2021/12/10 04:49:43;;;;;;;9.67;3.17;;;;;;;1.93;92.41;99035.94;5231762;28;20017;-69
2021/12/10 04:52:14;;;;;;;9.83;2.93;;;;;;;1.95;91.96;99023.09;5232348;28;20032;-70
2021/12/10 04:54:46;;;;;;;11.37;3.33;;;;;;;1.96;91.93;99024.78;5232229;28;20541;-69
2021/12/10 04:57:19;;;;;;;9.63;2.87;;;;;;;1.98;92.26;99025.63;5232037;28;20029;-70
2021/12/10 04:59:52;;;;;;;11.98;2.85;;;;;;;2.02;91.19;99006.75;5231803;28;20079;-69
2021/12/10 05:02:24;;;;;;;8.88;2.97;;;;;;;2.02;91.01;99001.63;5231704;28;20025;-70
2021/12/10 05:04:57;;;;;;;7.37;3.07;;;;;;;2.02;91.51;98995.63;5231604;28;20037;-70
2021/12/10 05:07:31;;;;;;;13.45;3.25;;;;;;;2.01;90.63;98997.31;5231743;28;20311;-68
2021/12/10 05:10:08;;;;;;;9.45;2.88;;;;;;;2.06;90.49;98994.72;5231559;28;20031;-69
2021/12/10 05:12:41;;;;;;;8.52;3.42;;;;;;;2.09;89.99;98989.56;5231284;28;20044;-69
2021/12/10 05:15:18;;;;;;;6.88;2.70;;;;;;;2.08;90.00;98993.88;5231431;28;20030;-69
2021/12/10 05:17:51;;;;;;;10.77;3.88;;;;;;;2.12;89.16;98989.56;5231491;28;20182;-68
2021/12/10 05:20:32;;;;;;;10.27;3.20;;;;;;;2.16;89.17;98986.94;5229636;28;20034;-70
2021/12/10 05:23:04;;;;;;;16.17;3.40;;;;;;;2.14;89.40;98980.97;5231700;28;20167;-69
2021/12/10 05:25:35;;;;;;;14.90;4.40;;;;;;;2.14;89.63;98983.53;5231324;28;20025;-70
2021/12/10 05:28:07;;;;;;;9.83;4.10;;;;;;;2.13;89.74;98974.13;5231319;28;20497;-70
2021/12/10 05:30:40;;;;;;;12.33;4.03;;;;;;;2.12;89.51;98976.69;5231357;28;20116;-69
2021/12/10 05:33:16;;;;;;;12.00;3.65;;;;;;;2.12;89.71;98972.41;5231241;28;20017;-69
2021/12/10 05:35:48;;;;;;;15.45;6.38;;;;;;;2.09;89.85;98969.84;5231417;28;20039;-70
2021/12/10 05:38:21;;;;;;;9.43;3.57;;;;;;;2.10;89.26;98966.44;5231082;28;20029;-68
2021/12/10 05:40:54;;;;;;;11.02;4.22;;;;;;;2.11;89.42;98964.69;5231007;28;20116;-69
2021/12/10 05:43:26;;;;;;;14.63;3.92;;;;;;;2.13;89.41;98956.13;5231040;28;20028;-69
2021/12/10 05:45:57;;;;;;;12.97;4.23;;;;;;;2.16;88.82;98953.53;5230818;28;20535;-69
2021/12/10 05:48:29;;;;;;;13.30;4.13;;;;;;;2.14;89.26;98955.28;5229625;28;20052;-69
2021/12/10 05:51:01;;;;;;;16.25;3.90;;;;;;;2.17;89.28;98956.94;5230745;28;20045;-68
2021/12/10 05:53:32;;;;;;;12.97;3.40;;;;;;;2.17;88.60;98951.81;5230837;28;20028;-69
2021/12/10 05:56:05;;;;;;;9.97;4.00;;;;;;;2.22;88.59;98959.47;5230512;28;20072;-69
2021/12/10 05:58:37;;;;;;;10.18;3.05;;;;;;;2.22;88.55;98947.47;5230524;28;20891;-69
2021/12/10 06:01:12;;;;;;;10.75;3.50;;;;;;;2.26;88.40;98951.72;5230372;28;20025;-69
2021/12/10 06:03:51;;;;;;;10.73;3.63;;;;;;;2.30;87.69;98943.16;5230425;28;20094;-69
2021/12/10 06:06:29;;;;;;;9.05;3.38;;;;;;;2.31;87.80;98949.13;5230648;28;20074;-69
2021/12/10 06:09:07;;;;;;;14.32;3.13;;;;;;;2.34;87.62;98949.94;5230470;28;20028;-69
2021/12/10 06:11:38;;;;;;;9.57;3.00;;;;;;;2.34;87.30;98941.38;5230411;28;20057;-69
2021/12/10 06:14:10;;;;;;;9.53;3.20;;;;;;;2.35;87.74;98940.50;5230798;28;20215;-69
2021/12/10 06:16:42;;;;;;;13.70;3.20;;;;;;;2.35;87.49;98943.06;5230605;28;20105;-69
2021/12/10 06:19:14;;;;;;;12.60;4.22;;;;;;;2.34;87.33;98939.66;5230325;28;20235;-69
2021/12/10 06:21:45;;;;;;;8.35;3.42;;;;;;;2.34;87.58;98936.25;5230506;28;20029;-70
2021/12/10 06:24:17;;;;;;;13.90;3.00;;;;;;;2.35;87.19;98933.66;5230397;28;20398;-69
2021/12/10 06:26:52;;;;;;;10.67;2.80;;;;;;;2.34;87.49;98933.69;5230087;28;20045;-70
2021/12/10 06:29:25;;;;;;;12.43;3.00;;;;;;;2.36;87.30;98940.50;5244837;28;20136;-69
2021/12/10 06:31:56;;;;;;;10.23;3.58;;;;;;;2.36;87.59;98932.78;5229885;28;20029;-69
2021/12/10 06:34:28;;;;;;;17.07;3.57;;;;;;;2.35;87.59;98935.34;5230353;28;20025;-69
2021/12/10 06:37:00;;;;;;;8.20;3.53;;;;;;;2.36;87.70;98932.78;5230484;28;20060;-70
2021/12/10 06:39:32;;;;;;;14.30;3.90;;;;;;;2.36;87.32;98929.38;5229017;28;20545;-70
2021/12/10 06:42:03;;;;;;;10.57;4.00;;;;;;;2.37;87.28;98924.22;5230884;28;20300;-70
2021/12/10 06:44:35;;;;;;;12.50;3.27;;;;;;;2.38;87.53;98922.47;5230795;28;20033;-68
2021/12/10 06:47:08;;;;;;;9.53;3.43;;;;;;;2.40;87.15;98925.91;5230507;28;20568;-69
2021/12/10 06:49:40;;;;;;;12.07;3.38;;;;;;;2.43;86.65;98927.59;5230729;28;20388;-69
2021/12/10 06:52:12;;;;;;;12.23;3.03;;;;;;;2.47;86.86;98935.25;5226392;28;20098;-70
2021/12/10 06:54:43;;;;;;;8.95;3.42;;;;;;;2.45;86.85;98934.44;5221300;28;20512;-70
2021/12/10 06:57:15;;;;;;;8.70;3.87;;;;;;;2.45;87.10;98936.16;5228175;28;20041;-70
2021/12/10 06:59:46;;;;;;;7.17;3.33;;;;;;;2.49;86.09;98935.25;5229738;28;20021;-70
2021/12/10 07:02:17;;;;;;;8.63;2.77;;;;;;;2.48;86.53;98936.97;5228381;28;20088;-70
2021/12/10 07:04:49;;;;;;;13.73;3.90;;;;;;;2.47;86.68;98942.97;5229430;28;20507;-70
2021/12/10 07:07:20;;;;;;;10.77;3.47;;;;;;;2.47;86.62;98940.41;5229908;28;20381;-71
2021/12/10 07:09:52;;;;;;;12.93;3.60;;;;;;;2.49;86.23;98938.66;5229976;28;20036;-71
2021/12/10 07:12:23;;;;;;;12.47;3.47;;;;;;;2.49;86.65;98937.81;5229419;28;20075;-71
2021/12/10 07:14:59;;;;;;;9.90;3.30;;;;;;;2.47;86.33;98932.69;5231843;28;20168;-71
2021/12/10 07:17:31;;;;;;;11.32;3.40;;;;;;;2.44;87.22;98935.28;5228724;28;20040;-71
2021/12/10 07:20:05;;;;;;;15.27;4.70;;;;;;;2.43;87.02;98936.16;5233339;28;20025;-70
2021/12/10 07:22:38;;;;;;;11.40;3.25;;;;;;;2.42;86.97;98941.31;5232682;28;20715;-72
2021/12/10 07:25:10;;;;;;;12.65;3.95;;;;;;;2.44;86.96;98937.84;5233249;28;20071;-71
2021/12/10 07:27:42;;;;;;;10.75;3.45;;;;;;;2.42;87.16;98931.88;5232688;28;20116;-70
2021/12/10 07:30:15;;;;;;;8.53;3.20;;;;;;;2.46;86.88;98933.53;5222359;28;20886;-70
2021/12/10 07:32:46;;;;;;;;;;;;;;;2.46;87.24;98935.28;5223260;28;20101;-70
2021/12/10 07:35:19;;;;;;;9.57;2.92;;;;;;;2.47;86.63;98929.28;5226122;28;19913;-72
2021/12/10 07:37:52;;;;;;;8.40;3.08;;;;;;;2.47;86.70;98935.25;5232660;28;20459;-70
2021/12/10 07:40:25;;;;;;;;;;;;;;;2.51;87.44;98936.94;5233663;28;20383;-72
2021/12/10 07:42:57;;;;;;;8.63;2.72;;;;;;;2.50;86.97;98930.09;5232905;28;19917;-71
2021/12/10 07:45:28;;;;;;;10.38;2.50;;;;;;;2.48;87.04;98936.09;5232221;28;20017;-71
2021/12/10 07:48:07;;;;;;;10.97;3.13;;;;;;;2.51;86.29;98929.22;5233368;28;20091;-71
2021/12/10 07:50:52;;;;;;;12.32;3.38;;;;;;;2.53;87.13;98934.34;5233560;28;20371;-72
2021/12/10 07:53:26;;;;;;;7.63;2.30;;;;;;;2.49;87.41;98937.81;5233500;28;20166;-71
2021/12/10 07:56:01;;;;;;;10.35;2.97;;;;;;;2.52;87.44;98930.06;5233625;28;20052;-71
2021/12/10 07:58:34;;;;;;;14.43;3.55;;;;;;;2.56;86.89;98931.75;5233395;28;20355;-71
2021/12/10 08:01:09;;;;;;;8.65;3.42;;;;;;;2.55;87.11;98932.63;5233521;28;20028;-72
2021/12/10 08:03:42;;;;;;;12.80;2.72;;;;;;;2.54;87.18;98936.91;5233201;28;20056;-70
2021/12/10 08:06:14;;;;;;;;;;;;;;;2.59;87.27;98939.41;5232286;28;20479;-71
2021/12/10 08:08:46;;;;;;;11.73;2.42;;;;;;;2.54;87.91;98936.91;5225984;28;19963;-71
2021/12/10 08:11:19;;;;;;;11.77;2.87;;;;;;;2.55;88.37;98948.88;5224652;28;20026;-71
2021/12/10 08:13:50;;;;;;;12.85;4.15;;;;;;;2.56;87.79;98936.91;5230777;28;20092;-71
2021/12/10 08:16:23;;;;;;;10.43;3.20;;;;;;;2.61;87.36;98936.81;5236578;28;20034;-72
2021/12/10 08:18:56;;;;;;;;;;;;;;;2.75;87.34;98937.53;5236997;28;20029;-70
2021/12/10 08:21:28;;;;;;;9.77;2.97;;;;;;;2.68;87.07;98938.50;5232719;28;19936;-70
2021/12/10 08:23:59;;;;;;;8.77;3.00;;;;;;;2.71;86.78;98941.03;5226117;28;20433;-71
2021/12/10 08:26:32;;;;;;;10.53;2.70;;;;;;;2.74;86.61;98944.41;5225166;28;20022;-71
2021/12/10 08:29:06;;;;;;;14.02;3.58;;;;;;;2.79;85.94;98940.94;5236032;28;20118;-71
2021/12/10 08:31:38;;;;;;;7.25;2.50;;;;;;;2.80;85.96;98934.91;5236907;28;20029;-71
2021/12/10 08:34:09;;;;;;;12.27;3.17;;;;;;;2.83;85.34;98934.88;5236709;28;20384;-71
2021/12/10 08:36:41;;;;;;;10.33;3.17;;;;;;;2.88;85.02;98940.81;5236569;28;20036;-71
2021/12/10 08:39:12;;;;;;;9.33;3.43;;;;;;;2.90;84.82;98937.38;5230294;28;20084;-71
2021/12/10 08:41:44;;;;;;;11.17;3.17;;;;;;;2.94;84.90;98940.75;5225832;28;20030;-71
2021/12/10 08:44:16;;;;;;;10.45;3.25;;;;;;;2.94;84.44;98945.91;5223303;28;20030;-70
2021/12/10 08:46:47;;;;;;;7.63;2.47;;;;;;;2.94;84.12;98945.06;5215546;28;20063;-71
2021/12/10 08:49:19;;;;;;;8.00;2.50;;;;;;;2.97;84.03;98943.31;5215419;28;20137;-70
2021/12/10 08:51:54;;;;;;;13.40;3.23;;;;;;;2.98;84.62;98941.56;5230312;28;20080;-70
2021/12/10 08:54:28;;;;;;;8.60;3.88;;;;;;;2.99;84.87;98943.28;5230473;28;20022;-71
2021/12/10 08:57:00;;;;;;;9.02;2.67;;;;;;;2.98;84.70;98934.72;5215344;28;20026;-70
2021/12/10 08:59:34;;;;;;;8.60;3.13;;;;;;;3.05;84.71;98944.06;5214967;28;20481;-72
2021/12/10 09:02:10;;;;;;;10.82;2.72;;;;;;;3.07;84.69;98939.75;5215362;28;20030;-71
2021/12/10 09:04:42;;;;;;;9.20;3.30;;;;;;;3.17;83.88;98945.66;5215266;28;20030;-71
2021/12/10 09:07:16;;;;;;;7.18;2.83;;;;;;;3.16;84.00;98943.09;5215073;28;20030;-71
2021/12/10 09:09:48;;;;;;;13.63;3.38;;;;;;;3.23;83.31;98942.97;5233697;28;20065;-71
2021/12/10 09:12:25;;;;;;;10.33;3.00;;;;;;;3.23;83.37;98945.56;5236472;28;20373;-72
2021/12/10 09:14:57;;;;;;;12.98;3.40;;;;;;;3.32;83.51;98956.59;5236103;28;20076;-71
2021/12/10 09:17:31;;;;;;;10.07;3.60;;;;;;;3.34;82.59;98949.75;5236672;28;20022;-72
2021/12/10 09:20:08;;;;;;;8.43;2.90;;;;;;;3.34;82.51;98960.03;5236011;28;20151;-71
2021/12/10 09:22:40;;;;;;;11.40;3.17;;;;;;;3.36;83.04;98953.97;5235408;28;20036;-70
2021/12/10 09:25:13;;;;;;;11.93;3.38;;;;;;;3.41;82.40;98956.50;5233179;28;20105;-72
2021/12/10 09:27:45;;;;;;;12.38;3.63;;;;;;;3.41;81.80;98949.66;5235632;28;20041;-72
2021/12/10 09:30:19;;;;;;;10.95;3.38;;;;;;;3.43;82.18;98959.91;5235010;28;20053;-71
2021/12/10 09:32:51;;;;;;;13.02;4.45;;;;;;;3.45;81.97;98958.19;5235534;28;20748;-70
2021/12/10 09:35:26;;;;;;;9.57;2.87;;;;;;;3.46;80.98;98958.16;5236237;28;20057;-72
2021/12/10 09:37:59;;;;;;;13.50;3.60;;;;;;;3.52;81.46;98961.53;5236457;28;20401;-72
2021/12/10 09:40:37;;;;;;;8.60;3.20;;;;;;;3.55;81.11;98967.47;5236676;28;20571;-70
2021/12/10 09:43:10;;;;;;;8.30;3.47;;;;;;;3.57;81.20;98967.44;5240561;28;20032;-71
2021/12/10 09:45:44;;;;;;;8.68;3.78;;;;;;;3.59;81.64;98970.84;5246182;28;20084;-71
2021/12/10 09:48:17;;;;;;;10.07;3.42;;;;;;;3.63;82.15;98968.22;5245532;28;20044;-71
2021/12/10 09:50:58;;;;;;;9.27;3.22;;;;;;;3.64;80.97;98959.63;5245393;28;20029;-71
2021/12/10 09:53:32;;;;;;;12.80;3.72;;;;;;;3.61;80.37;98967.41;5245703;28;20029;-71
2021/12/10 09:56:04;;;;;;;13.48;3.95;;;;;;;3.62;80.63;98966.53;5246014;28;20070;-72
2021/12/10 09:58:36;;;;;;;14.95;4.25;;;;;;;3.63;80.43;98965.63;5238462;28;20032;-71
2021/12/10 10:01:21;;;;;;;12.35;3.70;;;;;;;3.72;81.12;98971.53;5236666;28;20385;-71
2021/12/10 10:04:00;;;;;;;10.50;4.68;;;;;;;3.71;80.66;98962.97;5236169;28;20025;-70
2021/12/10 10:06:36;;;;;;;7.65;3.00;;;;;;;3.71;80.42;98969.84;5236609;28;20036;-71
2021/12/10 10:09:11;;;;;;;5.95;2.67;;;;;;;3.77;80.23;98965.47;5235022;28;20127;-70
2021/12/10 10:11:44;;;;;;;9.05;3.50;;;;;;;3.86;80.61;98979.09;5236273;28;20033;-70
2021/12/10 10:14:15;;;;;;;10.52;3.03;;;;;;;3.86;79.46;98985.09;5235966;28;20017;-70
2021/12/10 10:16:47;;;;;;;8.90;3.30;;;;;;;3.90;80.15;98975.59;5235768;28;20385;-70
2021/12/10 10:19:20;;;;;;;11.90;3.77;;;;;;;3.90;79.21;98979.03;5235637;28;20055;-71
2021/12/10 10:21:55;;;;;;;14.05;4.70;;;;;;;3.92;79.40;98974.69;5235750;28;20435;-71
2021/12/10 10:24:29;;;;;;;14.32;3.95;;;;;;;3.99;79.50;98978.88;5233005;28;20036;-70
2021/12/10 10:27:06;;;;;;;11.48;2.60;;;;;;;4.03;78.72;98976.28;5237025;28;20120;-71
2021/12/10 10:29:47;;;;;;;11.88;3.00;;;;;;;4.11;78.67;98979.56;5234837;28;20050;-71
2021/12/10 10:32:27;;;;;;;12.13;2.75;;;;;;;4.17;78.74;98984.63;5235093;28;20036;-71
2021/12/10 10:35:04;;;;;;;8.15;3.08;;;;;;;4.21;77.83;98978.53;5234665;28;20029;-69
2021/12/10 10:37:36;;;;;;;13.30;3.28;;;;;;;4.20;78.16;98980.28;5234782;28;20536;-71
2021/12/10 10:40:12;;;;;;;11.25;3.42;;;;;;;4.25;78.09;98980.22;5234700;28;20044;-71
2021/12/10 10:42:43;;;;;;;11.82;3.50;;;;;;;4.22;76.85;98975.09;5235323;28;20036;-70
2021/12/10 10:45:21;;;;;;;7.40;2.83;;;;;;;4.23;77.75;98969.03;5234677;28;20025;-70
2021/12/10 10:47:53;;;;;;;9.57;3.97;;;;;;;4.32;78.18;98984.38;5234719;28;20437;-71
2021/12/10 10:50:29;;;;;;;9.13;3.42;;;;;;;4.36;78.36;98980.00;5234996;28;20028;-71
2021/12/10 10:53:08;;;;;;;8.90;3.38;;;;;;;4.44;77.92;98980.75;5234227;28;20378;-71
2021/12/10 10:55:49;;;;;;;11.02;3.33;;;;;;;4.47;77.58;98974.69;5232729;28;20104;-70
2021/12/10 10:58:25;;;;;;;15.88;3.22;;;;;;;4.46;76.92;98979.00;5233647;28;20141;-71
2021/12/10 11:01:13;;;;;;;9.65;3.63;;;;;;;4.48;76.87;98982.41;5248811;28;20088;-71
2021/12/10 11:03:48;;;;;;;10.98;4.15;;;;;;;4.42;77.86;98979.06;5233406;28;20056;-71
2021/12/10 11:06:26;;;;;;;10.75;3.30;;;;;;;4.45;78.49;98985.03;5234299;28;20369;-72
2021/12/10 11:09:33;;;;;;;7.40;2.85;;;;;;;4.44;77.31;98990.22;5233946;28;20033;-72
2021/12/10 11:12:11;;;;;;;8.60;3.22;;;;;;;4.30;76.71;98993.88;5231904;28;20037;-69
2021/12/10 11:14:49;;;;;;;11.00;3.38;;;;;;;4.28;77.62;98993.06;5233343;28;20053;-71
2021/12/10 11:17:30;;;;;;;11.25;3.15;;;;;;;4.34;78.46;98997.25;5233839;28;20104;-70
2021/12/10 11:20:10;;;;;;;12.20;3.17;;;;;;;4.34;77.85;99000.69;5234043;28;20338;-71
2021/12/10 11:22:51;;;;;;;10.68;3.72;;;;;;;4.33;77.57;98996.41;5232373;28;20511;-70
2021/12/10 11:25:27;;;;;;;6.70;3.45;;;;;;;4.23;78.20;98997.41;5231926;28;20025;-70
2021/12/10 11:28:06;;;;;;;7.90;2.78;;;;;;;4.28;77.89;98998.22;5232934;28;20032;-70
2021/12/10 11:31:02;;;;;;;8.50;3.10;;;;;;;4.29;78.54;98999.06;5226060;28;20442;-70
2021/12/10 11:33:37;;;;;;;8.68;2.83;;;;;;;4.26;77.76;98996.53;5222956;28;20065;-70
2021/12/10 11:36:15;;;;;;;6.63;2.78;;;;;;;4.21;79.21;98999.19;5222181;28;20030;-70
2021/12/10 11:38:51;;;;;;;12.27;3.17;;;;;;;4.16;78.00;99004.41;5221215;28;20432;-69
2021/12/10 11:41:27;;;;;;;12.23;3.72;;;;;;;4.15;78.77;99005.28;5221948;28;20469;-70
2021/12/10 11:44:21;;;;;;;16.63;3.50;;;;;;;4.15;79.58;99004.44;5221761;28;20488;-72
2021/12/10 11:47:14;;;;;;;12.13;3.45;;;;;;;4.07;80.32;99014.00;5226990;28;20104;-72
2021/12/10 11:49:45;;;;;;;11.80;3.77;;;;;;;4.07;80.67;99011.44;5222486;28;20029;-71
2021/12/10 11:52:21;;;;;;;8.13;3.20;;;;;;;4.05;80.29;99010.59;5222312;28;20544;-71
2021/12/10 11:54:56;;;;;;;11.73;3.40;;;;;;;4.04;82.04;99014.06;5214644;28;20026;-70
2021/12/10 11:57:31;;;;;;;11.07;3.35;;;;;;;4.01;82.00;99020.13;5212688;28;20099;-71
2021/12/10 12:00:13;;;;;;;11.55;4.22;;;;;;;4.04;82.26;99020.03;5212827;28;20089;-71
2021/12/10 12:02:51;;;;;;;9.80;3.03;;;;;;;3.98;81.69;99020.16;5212925;28;20026;-71
2021/12/10 12:05:27;;;;;;;9.23;3.63;;;;;;;3.99;82.09;99017.56;5213113;28;20343;-71
2021/12/10 12:08:04;;;;;;;7.65;2.63;;;;;;;3.94;81.54;99028.78;5213021;28;20037;-71
2021/12/10 12:10:42;;;;;;;9.40;3.08;;;;;;;3.92;83.17;99030.56;5213014;28;20042;-71
2021/12/10 12:13:42;;;;;;;10.98;3.47;;;;;;;3.84;83.37;99028.91;5227243;28;20033;-70
2021/12/10 12:16:16;;;;;;;11.23;3.58;;;;;;;3.81;82.98;99033.28;5212367;28;20026;-72
2021/12/10 12:18:52;;;;;;;8.32;3.05;;;;;;;3.80;83.85;99041.88;5222937;28;20036;-71
2021/12/10 12:27:05;;;;;;;11.18;3.80;;;;;;;3.88;84.04;99034.91;5232465;28;20037;-70
2021/12/10 12:29:40;;;;;;;11.10;2.92;;;;;;;3.80;84.46;99036.72;5232590;28;20049;-70